createdAt,value
2019-05-13T00:02:06.776Z,102141.55
2019-05-13T00:04:39.359Z,102144.98
2019-05-13T00:07:13.418Z,102136.16
2019-05-13T00:09:45.937Z,102131.73
2019-05-13T00:12:18.613Z,102135.25
2019-05-13T00:14:50.822Z,102132.64
2019-05-13T00:17:23.780Z,102137.13
2019-05-13T00:19:57.886Z,102136.39
2019-05-13T00:22:30.564Z,102129.30
2019-05-13T00:25:04.066Z,102133.55
2019-05-13T00:27:36.887Z,102132.01
2019-05-13T00:30:09.917Z,102136.33
2019-05-13T00:32:44.605Z,102139.92
2019-05-13T00:35:16.815Z,102140.92
2019-05-13T00:37:49.498Z,102145.81
2019-05-13T00:40:24.040Z,102147.19
2019-05-13T00:42:56.073Z,102150.71
2019-05-13T00:45:28.774Z,102153.16
2019-05-13T00:48:01.454Z,102156.75
2019-05-13T00:50:34.120Z,102152.76
2019-05-13T00:53:06.638Z,102152.69
2019-05-13T00:55:39.281Z,102151.38
2019-05-13T00:58:13.942Z,102152.19
2019-05-13T01:00:46.777Z,102160.44
2019-05-13T01:03:19.877Z,102163.28
2019-05-13T01:05:53.534Z,102166.41
2019-05-13T01:08:27.169Z,102167.14
2019-05-13T01:10:59.752Z,102166.23
2019-05-13T01:13:34.224Z,102172.77
2019-05-13T01:16:08.182Z,102177.20
2019-05-13T01:18:43.172Z,102173.51
2019-05-13T01:21:15.999Z,102182.26
2019-05-13T01:23:49.090Z,102178.50
2019-05-13T01:26:23.285Z,102181.85
2019-05-13T01:28:55.981Z,102172.83
2019-05-13T01:31:28.668Z,102177.18
2019-05-13T01:34:01.343Z,102180.53
2019-05-13T01:36:34.264Z,102180.83
2019-05-13T01:39:08.755Z,102185.81
2019-05-13T01:41:43.647Z,102179.91
2019-05-13T01:44:15.467Z,102178.47
2019-05-13T01:46:47.674Z,102175.34
2019-05-13T01:49:20.404Z,102180.57
2019-05-13T01:51:54.167Z,102184.31
2019-05-13T01:54:27.076Z,102183.92
2019-05-13T01:56:59.647Z,102183.81
2019-05-13T01:59:33.993Z,102192.09
2019-05-13T02:02:07.263Z,102189.87
2019-05-13T02:04:39.534Z,102188.86
2019-05-13T02:07:13.809Z,102187.89
2019-05-13T02:09:46.107Z,102186.98
2019-05-13T02:12:18.695Z,102193.45
2019-05-13T02:14:53.411Z,102200.61
2019-05-13T02:17:25.594Z,102197.19
2019-05-13T02:19:59.289Z,102194.22
2019-05-13T02:22:33.661Z,102196.84
2019-05-13T02:25:07.327Z,102208.92
2019-05-13T02:27:40.192Z,102209.55
2019-05-13T02:30:16.299Z,102213.79
2019-05-13T02:32:47.187Z,102218.54
2019-05-13T02:35:22.945Z,102212.70
2019-05-13T02:38:12.378Z,102217.78
2019-05-13T02:40:32.470Z,102216.48
2019-05-13T02:43:03.387Z,102224.60
2019-05-13T02:45:36.740Z,102222.39
2019-05-13T02:48:12.424Z,102221.09
2019-05-13T02:50:44.249Z,102223.63
2019-05-13T02:53:17.022Z,102226.16
2019-05-13T02:55:52.446Z,102218.55
2019-05-13T02:58:25.133Z,102227.11
2019-05-13T03:00:58.345Z,102232.36
2019-05-13T03:03:32.685Z,102232.11
2019-05-13T03:06:05.220Z,102235.33
2019-05-13T03:08:46.185Z,102234.49
2019-05-13T03:11:12.764Z,102235.50
2019-05-13T03:13:47.279Z,102233.53
2019-05-13T03:16:24.925Z,102225.92
2019-05-13T03:18:57.706Z,102238.17
2019-05-13T03:21:32.667Z,102236.36
2019-05-13T03:24:05.324Z,102249.22
2019-05-13T03:26:38.140Z,102251.25
2019-05-13T03:29:13.330Z,102251.97
2019-05-13T03:31:47.236Z,102258.02
2019-05-13T03:34:25.460Z,102258.81
2019-05-13T03:36:57.350Z,102258.22
2019-05-13T03:39:33.209Z,102259.32
2019-05-13T03:42:12.346Z,102255.56
2019-05-13T03:44:46.180Z,102255.27
2019-05-13T03:47:23.125Z,102249.80
2019-05-13T03:50:03.029Z,102251.41
2019-05-13T03:52:34.776Z,102253.48
2019-05-13T03:55:09.349Z,102259.18
2019-05-13T03:57:42.568Z,102253.37
2019-05-13T04:00:16.370Z,102260.02
2019-05-13T04:02:51.882Z,102259.69
2019-05-13T04:05:23.749Z,102256.36
2019-05-13T04:07:56.732Z,102259.12
2019-05-13T04:10:33.354Z,102258.59
2019-05-13T04:13:06.969Z,102256.30
2019-05-13T04:15:42.514Z,102255.04
2019-05-13T04:18:14.195Z,102258.34
2019-05-13T04:20:48.668Z,102254.31
2019-05-13T04:23:25.765Z,102250.13
2019-05-13T04:26:02.617Z,102250.41
2019-05-13T04:28:35.098Z,102257.21
2019-05-13T04:31:07.750Z,102254.50
2019-05-13T04:33:47.300Z,102249.29
2019-05-13T04:36:23.542Z,102251.45
2019-05-13T04:38:55.656Z,102252.59
2019-05-13T04:41:28.281Z,102261.63
2019-05-13T04:44:02.649Z,102264.23
2019-05-13T04:46:35.788Z,102258.84
2019-05-13T04:49:08.482Z,102266.00
2019-05-13T04:51:42.090Z,102265.13
2019-05-13T04:54:15.057Z,102260.52
2019-05-13T04:56:47.948Z,102266.89
2019-05-13T04:59:22.675Z,102270.02
2019-05-13T05:02:51.270Z,102270.80
2019-05-13T05:05:34.274Z,102270.20
2019-05-13T05:08:42.077Z,102264.49
2019-05-13T05:11:48.167Z,102271.94
2019-05-13T05:14:44.284Z,102267.84
2019-05-13T05:17:39.593Z,102264.83
2019-05-13T05:20:32.161Z,102268.05
2019-05-13T05:23:32.030Z,102271.63
2019-05-13T05:26:25.511Z,102271.94
2019-05-13T05:29:17.579Z,102269.39
2019-05-13T05:32:12.232Z,102268.35
2019-05-13T05:35:11.785Z,102280.35
2019-05-13T05:38:26.273Z,102284.45
2019-05-13T05:41:01.657Z,102281.48
2019-05-13T05:43:37.405Z,102286.30
2019-05-13T05:46:12.140Z,102284.01
2019-05-13T05:48:45.929Z,102285.34
2019-05-13T05:51:22.141Z,102287.62
2019-05-13T05:53:57.535Z,102288.92
2019-05-13T05:56:33.080Z,102292.02
2019-05-13T05:59:06.183Z,102290.64
2019-05-13T06:01:41.577Z,102294.87
2019-05-13T06:04:14.496Z,102292.55
2019-05-13T06:06:52.046Z,102297.89
2019-05-13T06:09:23.546Z,102300.27
2019-05-13T06:11:56.642Z,102301.09
2019-05-13T06:14:29.368Z,102302.99
2019-05-13T06:17:02.924Z,102306.31
2019-05-13T06:19:35.909Z,102306.00
2019-05-13T06:22:08.604Z,102308.67
2019-05-13T06:24:42.039Z,102305.52
2019-05-13T06:27:15.172Z,102315.81
2019-05-13T06:29:49.292Z,102319.83
2019-05-13T06:32:26.077Z,102317.05
2019-05-13T06:34:57.303Z,102326.89
2019-05-13T06:37:32.029Z,102327.38
2019-05-13T06:40:04.201Z,102322.51
2019-05-13T06:42:36.835Z,102329.53
2019-05-13T06:45:12.399Z,102327.77
2019-05-13T06:47:44.687Z,102333.33
2019-05-13T06:50:17.378Z,102336.48
2019-05-13T06:52:51.411Z,102339.45
2019-05-13T06:55:24.474Z,102342.08
2019-05-13T06:57:57.371Z,102343.39
2019-05-13T07:00:34.225Z,102347.19
2019-05-13T07:03:04.294Z,102344.23
2019-05-13T07:05:45.270Z,102341.41
2019-05-13T07:08:22.194Z,102349.78
2019-05-13T07:10:58.723Z,102353.43
2019-05-13T07:13:32.253Z,102355.33
2019-05-13T07:16:07.978Z,102352.03
2019-05-13T07:18:41.567Z,102347.16
2019-05-13T07:21:21.691Z,102359.85
2019-05-13T07:24:05.679Z,102354.59
2019-05-13T07:26:42.883Z,102359.02
2019-05-13T07:29:20.462Z,102351.66
2019-05-13T07:31:58.690Z,102355.55
2019-05-13T07:34:35.620Z,102352.92
2019-05-13T07:37:11.334Z,102355.99
2019-05-13T07:39:44.875Z,102358.55
2019-05-13T07:42:19.227Z,102355.75
2019-05-13T07:47:53.745Z,102366.76
2019-05-13T07:50:29.286Z,102372.20
2019-05-13T07:53:05.057Z,102365.67
2019-05-13T07:55:44.295Z,102373.74
2019-05-13T07:58:28.724Z,102368.53
2019-05-13T08:01:22.113Z,102371.48
2019-05-13T08:03:56.495Z,102369.25
2019-05-13T08:06:41.439Z,102376.94
2019-05-13T08:09:38.757Z,102371.76
2019-05-13T08:12:33.098Z,102375.41
2019-05-13T08:15:13.002Z,102376.91
2019-05-13T08:20:57.242Z,102378.55
2019-05-13T08:23:33.513Z,102373.69
2019-05-13T08:26:21.658Z,102380.41
2019-05-13T08:31:59.629Z,102380.99
2019-05-13T08:34:45.696Z,102381.81
2019-05-13T08:37:32.171Z,102378.77
2019-05-13T08:40:13.751Z,102389.30
2019-05-13T08:42:54.641Z,102380.27
2019-05-13T08:45:31.491Z,102375.58
2019-05-13T08:48:04.789Z,102370.84
2019-05-13T08:51:34.526Z,102375.54
2019-05-13T08:56:32.468Z,102373.19
2019-05-13T08:59:26.002Z,102385.70
2019-05-13T09:02:03.617Z,102377.09
2019-05-13T09:04:46.254Z,102373.80
2019-05-13T09:07:26.914Z,102376.23
2019-05-13T09:12:37.101Z,102376.58
2019-05-13T09:18:15.939Z,102378.13
2019-05-13T09:21:02.501Z,102385.41
2019-05-13T09:23:41.345Z,102384.95
2019-05-13T09:26:14.799Z,102391.23
2019-05-13T09:29:01.358Z,102377.45
2019-05-13T09:31:54.920Z,102376.50
2019-05-13T09:34:35.734Z,102369.14
2019-05-13T09:37:22.589Z,102374.34
2019-05-13T09:40:19.126Z,102370.96
2019-05-13T09:43:12.629Z,102370.58
2019-05-13T09:46:11.815Z,102370.76
2019-05-13T09:52:12.019Z,102368.76
2019-05-13T09:54:56.204Z,102350.83
2019-05-13T09:58:02.974Z,102352.03
2019-05-13T10:00:52.321Z,102346.90
2019-05-13T10:09:24.621Z,102335.57
2019-05-13T10:19:04.865Z,102337.26
2019-05-13T10:25:18.609Z,102331.04
2019-05-13T10:31:11.941Z,102335.92
2019-05-13T10:34:10.328Z,102337.19
2019-05-13T10:36:51.346Z,102340.75
2019-05-13T10:39:28.783Z,102339.95
2019-05-13T10:42:08.698Z,102339.55
2019-05-13T10:45:06.704Z,102340.51
2019-05-13T10:48:03.195Z,102337.11
2019-05-13T10:51:02.402Z,102309.88
2019-05-13T10:54:14.458Z,102308.37
2019-05-13T10:57:03.530Z,102313.09
2019-05-13T10:59:44.331Z,102323.16
2019-05-13T11:11:12.941Z,102303.11
2019-05-13T11:14:10.135Z,102299.66
2019-05-13T11:16:38.730Z,102304.13
2019-05-13T11:19:14.603Z,102295.31
2019-05-13T11:21:50.620Z,102307.54
2019-05-13T11:24:22.860Z,102301.19
2019-05-13T11:26:57.134Z,102305.01
2019-05-13T11:29:32.330Z,102302.34
2019-05-13T11:32:04.294Z,102288.59
2019-05-13T11:34:41.977Z,102279.62
2019-05-13T11:37:22.315Z,102278.30
2019-05-13T11:40:02.946Z,102286.36
2019-05-13T11:42:55.265Z,102299.95
2019-05-13T11:45:41.541Z,102299.23
2019-05-13T11:51:24.080Z,102290.29
2019-05-13T11:53:55.308Z,102290.18
2019-05-13T11:56:33.578Z,102275.08
2019-05-13T11:59:07.905Z,102281.78
2019-05-13T12:08:14.213Z,102268.05
2019-05-13T12:14:43.054Z,102277.92
2019-05-13T12:24:51.575Z,102253.73
2019-05-13T12:31:38.580Z,102268.78
2019-05-13T12:36:56.729Z,102250.27
2019-05-13T12:39:32.055Z,102240.17
2019-05-13T12:42:03.991Z,102232.94
2019-05-13T12:44:59.814Z,102244.64
2019-05-13T12:47:14.673Z,102243.98
2019-05-13T12:49:47.580Z,102226.19
2019-05-13T12:52:22.932Z,102231.38
2019-05-13T12:54:54.104Z,102233.34
2019-05-13T12:57:26.376Z,102232.77
2019-05-13T13:00:02.089Z,102236.16
2019-05-13T13:39:25.418Z,102233.86
2019-05-13T13:44:26.223Z,102240.88
2019-05-13T13:46:59.298Z,102239.45
2019-05-13T13:49:34.872Z,102242.41
2019-05-13T13:52:06.483Z,102235.03
2019-05-13T13:54:45.738Z,102234.63
2019-05-13T13:57:18.003Z,102239.96
2019-05-13T14:00:16.304Z,102234.19
2019-05-13T14:02:25.651Z,102227.58
2019-05-13T14:05:04.881Z,102219.80
2019-05-13T14:07:38.634Z,102224.06
2019-05-13T14:10:11.607Z,102216.80
2019-05-13T14:12:44.122Z,102213.88
2019-05-13T14:15:16.580Z,102209.35
2019-05-13T14:17:51.655Z,102213.34
2019-05-13T14:20:26.089Z,102210.33
2019-05-13T14:23:02.831Z,102208.13
2019-05-13T14:28:45.146Z,102207.55
2019-05-13T14:34:35.655Z,102203.70
2019-05-13T14:37:17.711Z,102204.55
2019-05-13T14:40:12.168Z,102201.73
2019-05-13T14:46:15.858Z,102188.16
2019-05-13T14:48:56.130Z,102190.09
2019-05-13T14:51:29.061Z,102190.47
2019-05-13T14:54:28.408Z,102184.34
2019-05-13T14:57:07.295Z,102181.73
2019-05-13T14:59:41.436Z,102160.25
2019-05-13T15:02:14.553Z,102165.78
2019-05-13T15:04:47.237Z,102167.87
2019-05-13T15:07:21.653Z,102178.61
2019-05-13T15:09:56.887Z,102174.98
2019-05-13T15:12:32.331Z,102183.14
2019-05-13T15:15:18.606Z,102185.23
2019-05-13T15:36:22.585Z,102190.77
2019-05-13T15:39:12.649Z,102198.98
2019-05-13T15:41:47.502Z,102198.46
2019-05-13T15:44:21.975Z,102200.07
2019-05-13T15:46:59.424Z,102206.61
2019-05-13T15:49:32.353Z,102202.59
2019-05-13T15:52:06.796Z,102198.91
2019-05-13T15:54:41.456Z,102194.77
2019-05-13T15:57:18.049Z,102185.23
2019-05-13T15:59:53.426Z,102184.94
2019-05-13T16:02:27.841Z,102179.27
2019-05-13T16:05:04.618Z,102173.14
2019-05-13T16:07:35.876Z,102167.82
2019-05-13T16:10:11.351Z,102156.97
2019-05-13T16:13:02.298Z,102139.33
2019-05-13T16:15:55.072Z,102144.75
2019-05-13T16:25:20.729Z,102167.27
2019-05-13T16:27:53.925Z,102173.41
2019-05-13T16:30:26.915Z,102177.25
2019-05-13T16:33:02.258Z,102173.41
2019-05-13T16:35:34.420Z,102172.39
2019-05-13T16:38:07.195Z,102177.58
2019-05-13T16:40:42.173Z,102176.16
2019-05-13T16:43:15.177Z,102182.02
2019-05-13T16:45:47.446Z,102183.66
2019-05-13T16:48:21.700Z,102177.20
2019-05-13T16:51:08.426Z,102160.97
2019-05-13T16:57:10.507Z,102145.34
2019-05-13T16:59:42.885Z,102154.41
2019-05-13T17:11:36.203Z,102174.73
2019-05-13T17:14:13.901Z,102162.66
2019-05-13T17:16:46.683Z,102169.35
2019-05-13T17:19:19.253Z,102162.81
2019-05-13T17:21:55.205Z,102167.11
2019-05-13T17:24:28.655Z,102167.34
2019-05-13T17:27:02.406Z,102170.03
2019-05-13T17:29:36.355Z,102172.14
2019-05-13T17:32:11.423Z,102178.01
2019-05-13T17:34:45.873Z,102171.72
2019-05-13T17:37:17.840Z,102174.40
2019-05-13T17:39:50.719Z,102181.69
2019-05-13T17:42:24.008Z,102185.84
2019-05-13T17:44:56.684Z,102188.34
2019-05-13T17:47:31.121Z,102193.50
2019-05-13T17:50:06.405Z,102184.58
2019-05-13T17:52:39.026Z,102182.27
2019-05-13T17:55:12.495Z,102186.59
2019-05-13T17:57:45.198Z,102196.27
2019-05-13T18:00:17.991Z,102197.83
2019-05-13T18:02:51.445Z,102200.45
2019-05-13T18:05:24.369Z,102203.25
2019-05-13T18:07:57.052Z,102199.09
2019-05-13T18:10:31.822Z,102201.19
2019-05-13T18:13:04.875Z,102205.70
2019-05-13T18:15:37.533Z,102209.73
2019-05-13T18:18:11.863Z,102210.46
2019-05-13T18:20:44.235Z,102218.23
2019-05-13T18:23:17.120Z,102216.66
2019-05-13T18:25:51.477Z,102218.63
2019-05-13T18:28:30.932Z,102215.30
2019-05-13T18:30:58.149Z,102224.90
2019-05-13T18:33:31.968Z,102226.94
2019-05-13T18:36:06.350Z,102232.90
2019-05-13T18:38:38.635Z,102228.90
2019-05-13T18:41:11.998Z,102232.13
2019-05-13T18:43:45.087Z,102233.73
2019-05-13T18:46:17.883Z,102236.48
2019-05-13T18:48:58.680Z,102239.65
2019-05-13T18:51:24.884Z,102236.78
2019-05-13T18:54:01.140Z,102241.46
2019-05-13T18:56:34.234Z,102238.58
2019-05-13T18:59:06.900Z,102242.75
2019-05-13T19:01:39.843Z,102243.94
2019-05-13T19:04:12.679Z,102247.59
2019-05-13T19:06:46.374Z,102249.76
2019-05-13T19:09:21.759Z,102245.45
2019-05-13T19:11:54.406Z,102246.52
2019-05-13T19:14:26.679Z,102252.77
2019-05-13T19:16:59.335Z,102247.22
2019-05-13T19:19:32.030Z,102247.13
2019-05-13T19:22:05.106Z,102249.17
2019-05-13T19:24:37.791Z,102250.82
2019-05-13T19:27:12.023Z,102245.08
2019-05-13T19:29:46.334Z,102254.41
2019-05-13T19:32:21.718Z,102247.99
2019-05-13T19:34:53.736Z,102246.89
2019-05-13T19:37:26.190Z,102244.41
2019-05-13T19:40:03.041Z,102243.50
2019-05-13T19:42:37.427Z,102243.22
2019-05-13T19:45:11.180Z,102247.64
2019-05-13T19:47:43.785Z,102246.23
2019-05-13T19:50:16.092Z,102247.63
2019-05-13T19:52:48.734Z,102247.28
2019-05-13T19:55:21.526Z,102252.48
2019-05-13T19:57:54.435Z,102251.48
2019-05-13T20:00:28.652Z,102257.56
2019-05-13T20:03:01.394Z,102257.86
2019-05-13T20:05:34.075Z,102260.12
2019-05-13T20:08:07.286Z,102262.30
2019-05-13T20:10:42.158Z,102262.11
2019-05-13T20:13:13.955Z,102259.50
2019-05-13T20:15:46.726Z,102255.11
2019-05-13T20:18:18.950Z,102259.65
2019-05-13T20:20:52.202Z,102259.28
2019-05-13T20:23:25.789Z,102259.21
2019-05-13T20:25:59.245Z,102260.55
2019-05-13T20:28:31.885Z,102261.81
2019-05-13T20:31:04.555Z,102266.23
2019-05-13T20:33:39.959Z,102256.59
2019-05-13T20:36:12.577Z,102255.61
2019-05-13T20:38:45.755Z,102263.25
2019-05-13T20:41:18.845Z,102260.45
2019-05-13T20:43:52.156Z,102257.84
2019-05-13T20:46:25.124Z,102258.64
2019-05-13T20:48:57.709Z,102257.05
2019-05-13T20:51:31.344Z,102254.16
2019-05-13T20:54:04.190Z,102250.42
2019-05-13T20:56:37.069Z,102253.87
2019-05-13T20:59:12.576Z,102249.02
2019-05-13T21:01:45.189Z,102251.88
2019-05-13T21:04:17.865Z,102250.38
2019-05-13T21:06:51.628Z,102251.83
2019-05-13T21:09:24.458Z,102246.69
2019-05-13T21:11:56.715Z,102248.71
2019-05-13T21:14:31.785Z,102244.61
2019-05-13T21:17:03.813Z,102247.03
2019-05-13T21:19:39.707Z,102246.27
2019-05-13T21:22:11.850Z,102245.02
2019-05-13T21:24:44.522Z,102246.72
2019-05-13T21:27:17.200Z,102243.66
2019-05-13T21:29:51.939Z,102247.78
2019-05-13T21:32:25.122Z,102242.20
2019-05-13T21:34:57.711Z,102238.67
2019-05-13T21:37:30.489Z,102238.94
2019-05-13T21:40:03.273Z,102233.34
2019-05-13T21:42:37.283Z,102232.16
2019-05-13T21:45:11.251Z,102229.05
2019-05-13T21:47:44.073Z,102228.06
2019-05-13T21:50:29.470Z,102226.87
2019-05-13T21:52:51.542Z,102218.47
2019-05-13T21:55:24.147Z,102214.97
2019-05-13T21:57:58.058Z,102216.52
2019-05-13T22:00:32.474Z,102215.80
2019-05-13T22:03:05.679Z,102214.12
2019-05-13T22:05:38.359Z,102206.30
2019-05-13T22:08:12.373Z,102214.19
2019-05-13T22:10:45.081Z,102212.69
2019-05-13T22:13:17.723Z,102213.71
2019-05-13T22:15:52.343Z,102205.06
2019-05-13T22:18:24.924Z,102207.19
2019-05-13T22:20:57.804Z,102207.47
2019-05-13T22:23:32.076Z,102202.03
2019-05-13T22:26:04.489Z,102204.92
2019-05-13T22:28:37.370Z,102203.33
2019-05-13T22:31:11.688Z,102202.13
2019-05-13T22:33:45.285Z,102200.02
2019-05-13T22:36:18.477Z,102197.10
2019-05-13T22:38:51.785Z,102198.59
2019-05-13T22:41:24.591Z,102196.30
2019-05-13T22:43:58.893Z,102199.00
2019-05-13T22:46:32.208Z,102194.88
2019-05-13T22:49:05.266Z,102199.11
2019-05-13T22:51:38.251Z,102192.48
2019-05-13T22:54:11.895Z,102187.98
2019-05-13T22:56:44.839Z,102188.30
2019-05-13T22:59:17.520Z,102193.75
2019-05-13T23:01:52.345Z,102194.38
2019-05-13T23:04:24.721Z,102195.66
2019-05-13T23:06:57.897Z,102195.57
2019-05-13T23:09:32.194Z,102197.10
2019-05-13T23:12:05.032Z,102194.97
2019-05-13T23:14:37.885Z,102192.06
2019-05-13T23:17:12.550Z,102187.44
2019-05-13T23:19:46.516Z,102189.45
2019-05-13T23:22:19.309Z,102186.92
2019-05-13T23:24:52.286Z,102184.82
2019-05-13T23:27:26.193Z,102186.28
2019-05-13T23:30:01.244Z,102182.09
2019-05-13T23:32:35.598Z,102185.89
2019-05-13T23:35:11.201Z,102185.61
2019-05-13T23:37:43.678Z,102181.63
2019-05-13T23:40:16.459Z,102180.65
2019-05-13T23:42:51.619Z,102177.14
2019-05-13T23:45:23.451Z,102183.56
2019-05-13T23:47:56.125Z,102178.98
2019-05-13T23:50:31.953Z,102177.59
2019-05-13T23:53:04.155Z,102175.48
2019-05-13T23:55:36.833Z,102172.97
2019-05-13T23:58:09.513Z,102171.67
